Time;durP1;ratioP1;P1;durP2;ratioP2;P2;SDS_P1;SDS_P2;PMS_P1;PMS_P2;Temp;Humidity;BMP_temperature;BMP_pressure;BME280_temperature;BME280_humidity;BME280_pressure;Samples;Min_cycle;Max_cycle;Signal;HPM_P1;HPM_P2
2023/06/06 00:00:43;;;;;;;;;14.00;13.00;26.00;49.80;;;;;;111485;1238;44470;-66
2023/06/06 00:03:29;;;;;;;;;11.00;10.00;26.00;50.00;;;;;;111380;1241;51289;-67
2023/06/06 00:05:59;;;;;;;;;12.00;11.00;26.00;50.00;;;;;;111406;1237;50187;-67
2023/06/06 00:08:28;;;;;;;;;13.00;12.00;26.10;49.80;;;;;;111354;1238;54193;-66
2023/06/06 00:10:55;;;;;;;;;13.33;11.67;26.10;49.70;;;;;;111369;1240;44167;-66
2023/06/06 00:13:22;;;;;;;;;12.00;11.00;26.10;49.70;;;;;;111277;1243;50096;-67
2023/06/06 00:15:49;;;;;;;;;12.33;11.67;26.10;49.70;;;;;;111303;1238;49109;-67
2023/06/06 00:18:16;;;;;;;;;13.00;12.00;26.10;49.90;;;;;;111183;1239;54157;-67
2023/06/06 00:20:43;;;;;;;;;15.00;12.67;26.10;49.60;;;;;;111384;1238;45012;-67
2023/06/06 00:23:10;;;;;;;;;14.00;13.00;26.10;49.60;;;;;;111191;1243;49492;-67
2023/06/06 00:25:37;;;;;;;;;11.00;10.00;26.10;49.70;;;;;;111406;1241;49720;-69
2023/06/06 00:28:04;;;;;;;;;12.00;11.00;26.10;49.70;;;;;;111357;1239;54276;-69
2023/06/06 00:30:31;;;;;;;;;13.00;10.50;26.10;49.60;;;;;;111279;1238;44625;-69
2023/06/06 00:32:58;;;;;;;;;14.25;12.00;26.10;49.60;;;;;;111445;1243;49860;-69
2023/06/06 00:35:25;;;;;;;;;13.00;11.00;26.00;49.50;;;;;;111487;1239;49649;-68
2023/06/06 00:37:51;;;;;;;;;18.50;13.00;26.10;49.60;;;;;;111320;1240;53528;-68
2023/06/06 00:40:18;;;;;;;;;13.25;12.25;26.10;49.10;;;;;;111432;1238;44356;-69
2023/06/06 00:42:45;;;;;;;;;14.00;11.25;26.10;49.50;;;;;;111373;1237;49171;-68
2023/06/06 00:45:12;;;;;;;;;12.25;10.00;26.10;49.50;;;;;;111239;1239;49695;-69
2023/06/06 00:47:39;;;;;;;;;12.00;11.00;26.10;49.50;;;;;;111328;1243;54351;-69
2023/06/06 00:50:08;;;;;;;;;12.33;11.00;26.10;49.50;;;;;;111479;1238;44333;-69
2023/06/06 00:52:35;;;;;;;;;12.00;11.00;26.10;49.70;;;;;;111352;1241;50009;-69
2023/06/06 00:55:02;;;;;;;;;12.67;10.67;26.10;49.40;;;;;;111424;1238;48987;-68
2023/06/06 00:57:29;;;;;;;;;16.67;12.67;26.10;49.50;;;;;;111252;1238;54360;-68
2023/06/06 00:59:56;;;;;;;;;12.00;11.00;26.10;49.40;;;;;;111251;1240;44618;-69
2023/06/06 01:02:24;;;;;;;;;12.00;11.00;26.10;49.30;;;;;;111555;1238;49868;-70
2023/06/06 01:04:51;;;;;;;;;11.00;10.00;26.10;49.30;;;;;;111480;1238;49402;-69
2023/06/06 01:07:18;;;;;;;;;13.00;10.25;26.10;49.50;;;;;;111657;1241;53378;-68
2023/06/06 01:09:45;;;;;;;;;12.00;11.00;26.20;49.30;;;;;;111227;1238;44977;-66
2023/06/06 01:12:35;;;;;;;;;11.00;10.00;26.20;49.30;;;;;;111264;1243;49451;-68
2023/06/06 01:15:27;;;;;;;;;14.00;11.00;26.20;48.80;;;;;;111259;1241;48866;-68
2023/06/06 01:17:55;;;;;;;;;15.00;12.00;26.20;49.40;;;;;;111409;1238;53374;-68
2023/06/06 01:20:23;;;;;;;;;12.67;11.67;26.20;49.20;;;;;;111285;1244;44766;-68
2023/06/06 01:22:52;;;;;;;;;15.00;12.00;26.20;49.10;;;;;;110300;1243;1212394;-68
2023/06/06 01:25:21;;;;;;;;;11.75;10.75;26.20;49.10;;;;;;111344;1241;49152;-68
2023/06/06 01:27:53;;;;;;;;;15.67;12.00;26.20;49.20;;;;;;111251;1238;53878;-67
2023/06/06 01:30:22;;;;;;;;;13.00;9.00;26.20;49.10;;;;;;111458;1239;45847;-68
2023/06/06 01:32:58;;;;;;;;;12.00;10.75;26.30;49.10;;;;;;111610;1243;49665;-67
2023/06/06 01:35:32;;;;;;;;;14.50;11.75;26.30;49.10;;;;;;111458;1241;48960;-72
2023/06/06 01:38:45;;;;;;;;;12.00;10.00;26.30;49.10;;;;;;111617;1241;53670;-68
2023/06/06 01:41:16;;;;;;;;;13.25;11.75;26.30;49.50;;;;;;111279;1238;44922;-69
2023/06/06 01:43:46;;;;;;;;;12.75;11.50;26.30;48.90;;;;;;111247;1244;50548;-69
2023/06/06 01:46:13;;;;;;;;;10.25;9.00;26.40;48.80;;;;;;111444;1242;49768;-67
2023/06/06 01:48:41;;;;;;;;;11.67;10.67;26.40;48.80;;;;;;111378;1244;53827;-67
2023/06/06 01:51:08;;;;;;;;;11.00;9.00;26.40;48.80;;;;;;111319;1243;44520;-67
2023/06/06 01:53:34;;;;;;;;;11.00;10.00;26.40;48.90;;;;;;111337;1238;48991;-68
2023/06/06 01:56:01;;;;;;;;;15.25;13.25;26.30;49.20;;;;;;111531;1240;49779;-68
2023/06/06 01:58:29;;;;;;;;;12.00;10.75;26.30;48.90;;;;;;111266;1243;54584;-69
2023/06/06 02:00:56;;;;;;;;;10.50;9.75;26.30;48.90;;;;;;111376;1244;45356;-69
2023/06/06 02:03:23;;;;;;;;;11.00;10.00;26.30;48.90;;;;;;111440;1241;49054;-68
2023/06/06 02:05:50;;;;;;;;;10.75;9.75;26.30;48.90;;;;;;111395;1239;48842;-69
2023/06/06 02:08:17;;;;;;;;;15.00;12.75;26.30;48.90;;;;;;111217;1240;54985;-67
2023/06/06 02:10:44;;;;;;;;;13.50;11.00;26.30;48.90;;;;;;111280;1243;44938;-68
2023/06/06 02:13:11;;;;;;;;;11.00;10.00;26.30;48.90;;;;;;111334;1243;48868;-68
2023/06/06 02:15:38;;;;;;;;;13.50;11.00;26.30;48.90;;;;;;111803;1238;49814;-68
2023/06/06 02:18:05;;;;;;;;;13.00;12.00;26.30;48.90;;;;;;111564;1241;54732;-68
2023/06/06 02:20:32;;;;;;;;;11.50;10.25;26.30;48.80;;;;;;111506;1241;44616;-68
2023/06/06 02:22:59;;;;;;;;;12.00;11.00;26.30;48.80;;;;;;111628;1242;49115;-68
2023/06/06 02:25:26;;;;;;;;;11.00;10.00;26.30;48.80;;;;;;111887;1241;50028;-68
2023/06/06 02:27:55;;;;;;;;;12.00;9.00;26.30;48.80;;;;;;111331;1239;54814;-68
2023/06/06 02:30:24;;;;;;;;;12.00;11.00;26.30;48.70;;;;;;111321;1243;44305;-67
2023/06/06 02:32:51;;;;;;;;;11.00;10.00;26.40;48.70;;;;;;111400;1241;49466;-68
2023/06/06 02:35:21;;;;;;;;;13.00;12.00;26.40;48.70;;;;;;111422;1241;50512;-67
2023/06/06 02:37:48;;;;;;;;;13.33;11.00;26.40;48.80;;;;;;111409;1237;54545;-68
2023/06/06 02:40:16;;;;;;;;;9.00;8.00;26.30;48.60;;;;;;111208;1238;44877;-68
2023/06/06 02:42:43;;;;;;;;;10.75;9.75;26.40;48.70;;;;;;111299;1240;48934;-69
2023/06/06 02:45:10;;;;;;;;;10.00;9.33;26.40;48.80;;;;;;111644;1243;49561;-68
2023/06/06 02:47:37;;;;;;;;;10.75;9.75;26.30;48.70;;;;;;111489;1241;53648;-68
2023/06/06 02:50:05;;;;;;;;;11.67;10.00;26.30;48.60;;;;;;111388;1243;44426;-70
2023/06/06 02:52:32;;;;;;;;;12.00;9.50;26.40;48.80;;;;;;111305;1244;49504;-67
2023/06/06 02:54:59;;;;;;;;;15.25;12.50;26.40;48.60;;;;;;111566;1238;49835;-67
2023/06/06 02:57:26;;;;;;;;;12.75;11.75;26.40;48.90;;;;;;111190;1239;54269;-66
2023/06/06 02:59:53;;;;;;;;;10.67;9.67;26.40;48.70;;;;;;111375;1243;44246;-69
2023/06/06 03:02:20;;;;;;;;;11.00;10.00;26.40;48.90;;;;;;111408;1243;49175;-69
2023/06/06 03:04:47;;;;;;;;;11.75;9.25;26.40;48.90;;;;;;111831;1239;49611;-68
2023/06/06 03:07:16;;;;;;;;;11.00;10.00;26.40;48.70;;;;;;111356;1241;54527;-67
2023/06/06 03:09:43;;;;;;;;;11.67;10.67;26.40;48.70;;;;;;111390;1243;45198;-69
2023/06/06 03:12:11;;;;;;;;;12.75;11.75;26.40;48.60;;;;;;111411;1241;48740;-67
2023/06/06 03:14:38;;;;;;;;;9.25;8.25;26.40;48.60;;;;;;111625;1243;49428;-68
2023/06/06 03:17:06;;;;;;;;;13.50;10.75;26.40;48.60;;;;;;111378;1239;54026;-70
2023/06/06 03:19:33;;;;;;;;;14.00;11.50;26.40;48.60;;;;;;111359;1244;44571;-67
2023/06/06 03:22:01;;;;;;;;;11.00;10.25;26.40;48.70;;;;;;111401;1243;49241;-69
2023/06/06 03:24:29;;;;;;;;;11.00;10.00;26.40;48.70;;;;;;111615;1244;49521;-68
2023/06/06 03:26:56;;;;;;;;;11.67;10.67;26.40;48.50;;;;;;111630;1238;54586;-70
2023/06/06 03:29:23;;;;;;;;;11.00;10.00;26.50;48.50;;;;;;111431;1243;44537;-69
2023/06/06 03:31:50;;;;;;;;;13.75;11.25;26.50;48.50;;;;;;111463;1238;49923;-66
2023/06/06 03:34:17;;;;;;;;;11.67;10.67;26.50;48.70;;;;;;111370;1243;49686;-68
2023/06/06 03:36:44;;;;;;;;;12.25;11.00;26.50;48.50;;;;;;111463;1238;55237;-67
2023/06/06 03:39:10;;;;;;;;;9.75;8.75;26.50;48.60;;;;;;111488;1241;45117;-66
2023/06/06 03:41:37;;;;;;;;;11.50;10.00;26.50;48.50;;;;;;111362;1243;49115;-66
2023/06/06 03:44:04;;;;;;;;;14.00;12.67;26.50;48.60;;;;;;111167;1240;49140;-66
2023/06/06 03:46:31;;;;;;;;;11.50;10.50;26.50;48.60;;;;;;111221;1243;53537;-66
2023/06/06 03:48:58;;;;;;;;;12.75;11.75;26.50;48.60;;;;;;111437;1238;44173;-67
2023/06/06 03:51:25;;;;;;;;;12.75;11.50;26.50;48.60;;;;;;111497;1239;49284;-66
2023/06/06 03:53:52;;;;;;;;;12.50;9.75;26.50;48.60;;;;;;111648;1237;49023;-69
2023/06/06 03:56:21;;;;;;;;;15.75;10.75;26.40;48.70;;;;;;111813;1240;54058;-68
2023/06/06 03:58:49;;;;;;;;;12.75;11.50;26.50;48.60;;;;;;111443;1243;44911;-68
2023/06/06 04:01:16;;;;;;;;;10.00;9.00;26.50;48.50;;;;;;111258;1244;48940;-69
2023/06/06 04:03:43;;;;;;;;;10.00;9.00;26.50;48.60;;;;;;111375;1238;49546;-68
2023/06/06 04:06:10;;;;;;;;;13.50;11.25;26.50;49.20;;;;;;111759;1239;53594;-71
2023/06/06 04:08:37;;;;;;;;;14.00;12.75;26.50;49.20;;;;;;111443;1244;44302;-71
2023/06/06 04:11:04;;;;;;;;;12.75;11.75;26.50;49.50;;;;;;111291;1241;48799;-70
2023/06/06 04:13:31;;;;;;;;;15.75;14.75;26.50;49.70;;;;;;111323;1240;49722;-73
2023/06/06 04:15:58;;;;;;;;;15.00;12.75;26.50;49.60;;;;;;111635;1239;54543;-72
2023/06/06 04:18:25;;;;;;;;;18.00;15.33;26.50;49.70;;;;;;111434;1239;44716;-73
2023/06/06 04:20:52;;;;;;;;;17.75;15.25;26.50;50.10;;;;;;111361;1243;48795;-72
2023/06/06 04:23:20;;;;;;;;;17.00;15.25;26.50;50.20;;;;;;111388;1240;49600;-72
2023/06/06 04:25:48;;;;;;;;;14.75;13.50;26.50;49.70;;;;;;111734;1243;53458;-74
2023/06/06 04:28:18;;;;;;;;;15.00;13.75;26.50;50.00;;;;;;111613;1238;44560;-73
2023/06/06 04:30:47;;;;;;;;;15.00;14.00;26.50;50.00;;;;;;111458;1243;49695;-76
2023/06/06 04:33:15;;;;;;;;;14.67;13.67;26.50;50.00;;;;;;111512;1238;50731;-75
2023/06/06 04:35:42;;;;;;;;;14.00;13.00;26.50;50.00;;;;;;111943;1239;53802;-75
2023/06/06 04:38:10;;;;;;;;;16.33;14.33;26.60;50.00;;;;;;111416;1243;44209;-75
2023/06/06 04:40:40;;;;;;;;;14.25;13.25;26.60;49.80;;;;;;111581;1243;49671;-74
2023/06/06 04:43:07;;;;;;;;;20.25;14.75;26.70;49.80;;;;;;111291;1243;49324;-73
2023/06/06 04:45:34;;;;;;;;;14.00;13.00;26.70;49.70;;;;;;111639;1243;53958;-74
2023/06/06 04:48:02;;;;;;;;;16.00;15.00;26.70;49.60;;;;;;111389;1238;44702;-74
2023/06/06 04:50:29;;;;;;;;;14.00;12.75;26.80;49.80;;;;;;111631;1238;49698;-74
2023/06/06 04:52:56;;;;;;;;;17.50;13.00;26.80;49.50;;;;;;111474;1243;49246;-74
2023/06/06 04:55:27;;;;;;;;;13.33;12.00;26.80;49.40;;;;;;111713;1238;54389;-74
2023/06/06 04:57:55;;;;;;;;;12.00;11.00;26.80;49.40;;;;;;111335;1240;44428;-74
2023/06/06 05:00:23;;;;;;;;;12.25;11.25;26.80;49.30;;;;;;111328;1243;49621;-75
2023/06/06 05:02:51;;;;;;;;;13.50;11.50;26.80;49.20;;;;;;111320;1240;49495;-75
2023/06/06 05:05:18;;;;;;;;;14.33;12.00;26.80;49.20;;;;;;111670;1238;53095;-75
2023/06/06 05:07:45;;;;;;;;;14.00;11.00;26.80;49.20;;;;;;111555;1238;45464;-75
2023/06/06 05:10:13;;;;;;;;;13.00;12.00;26.90;49.10;;;;;;111546;1242;49271;-74
2023/06/06 05:12:40;;;;;;;;;13.00;11.00;26.90;49.00;;;;;;111610;1243;49606;-75
2023/06/06 05:15:07;;;;;;;;;15.00;12.50;26.90;49.00;;;;;;111746;1241;54215;-75
2023/06/06 05:17:36;;;;;;;;;15.25;13.50;26.90;49.00;;;;;;111417;1240;44572;-75
2023/06/06 05:20:08;;;;;;;;;14.67;13.33;26.90;49.10;;;;;;111445;1243;49074;-75
2023/06/06 05:22:35;;;;;;;;;14.00;12.00;26.90;49.10;;;;;;111361;1243;49268;-74
2023/06/06 05:25:02;;;;;;;;;15.67;11.67;26.90;49.00;;;;;;111677;1243;54008;-75
2023/06/06 05:27:29;;;;;;;;;16.25;15.25;26.90;48.80;;;;;;111509;1238;44369;-75
2023/06/06 05:29:56;;;;;;;;;15.00;13.75;26.90;48.70;;;;;;111367;1243;49422;-75
2023/06/06 05:32:23;;;;;;;;;13.50;12.50;27.00;48.70;;;;;;111339;1244;50012;-75
2023/06/06 05:34:50;;;;;;;;;14.75;12.25;27.00;48.70;;;;;;111789;1242;54587;-76
2023/06/06 05:37:18;;;;;;;;;12.67;11.67;27.00;48.70;;;;;;111564;1241;44673;-74
2023/06/06 05:39:45;;;;;;;;;15.00;14.00;27.00;48.60;;;;;;111480;1238;49166;-75
2023/06/06 05:42:12;;;;;;;;;15.00;14.00;27.00;48.60;;;;;;111324;1244;50839;-75
2023/06/06 05:44:39;;;;;;;;;13.25;12.00;27.00;48.60;;;;;;111637;1240;53207;-75
2023/06/06 05:47:06;;;;;;;;;12.00;10.67;27.00;48.60;;;;;;111338;1238;44662;-75
2023/06/06 05:49:32;;;;;;;;;13.00;11.00;27.00;48.50;;;;;;111342;1243;50615;-76
2023/06/06 05:52:01;;;;;;;;;13.00;11.00;27.00;48.70;;;;;;111390;1244;49031;-75
2023/06/06 05:54:28;;;;;;;;;11.25;10.00;27.00;49.00;;;;;;111555;1243;53509;-74
2023/06/06 05:56:57;;;;;;;;;11.00;9.50;27.00;48.50;;;;;;111496;1239;45282;-74
2023/06/06 05:59:24;;;;;;;;;11.00;10.00;27.00;48.50;;;;;;111333;1238;50337;-74
2023/06/06 06:01:51;;;;;;;;;15.25;13.00;27.00;48.40;;;;;;111325;1240;49606;-75
2023/06/06 06:04:19;;;;;;;;;11.00;10.00;27.00;48.60;;;;;;111634;1241;53986;-75
2023/06/06 06:06:46;;;;;;;;;12.75;11.75;27.10;48.50;;;;;;111461;1243;45300;-74
2023/06/06 06:09:16;;;;;;;;;16.00;13.75;27.10;48.40;;;;;;111359;1243;49617;-75
2023/06/06 06:11:43;;;;;;;;;13.75;12.75;27.10;48.40;;;;;;111335;1244;50101;-74
2023/06/06 06:14:10;;;;;;;;;13.00;12.00;27.10;48.30;;;;;;111532;1241;54470;-74
2023/06/06 06:16:37;;;;;;;;;13.00;10.00;27.10;48.30;;;;;;111783;1238;45076;-75
2023/06/06 06:19:05;;;;;;;;;13.75;11.00;27.10;48.30;;;;;;111412;1244;48979;-74
2023/06/06 06:21:32;;;;;;;;;15.00;14.00;27.20;48.40;;;;;;111365;1240;48877;-74
2023/06/06 06:23:59;;;;;;;;;13.33;12.33;27.10;48.20;;;;;;111394;1238;53484;-74
2023/06/06 06:26:26;;;;;;;;;11.67;10.67;27.20;48.30;;;;;;111748;1240;45398;-74
2023/06/06 06:28:55;;;;;;;;;18.25;12.00;27.20;48.30;;;;;;111397;1242;50064;-74
2023/06/06 06:31:22;;;;;;;;;13.00;12.00;27.20;48.20;;;;;;111403;1238;49616;-73
2023/06/06 06:33:50;;;;;;;;;14.75;12.00;27.30;48.30;;;;;;111548;1239;53903;-75
2023/06/06 06:36:17;;;;;;;;;14.25;13.25;27.30;48.30;;;;;;111906;1238;44850;-74
2023/06/06 06:38:44;;;;;;;;;19.33;13.33;27.30;48.20;;;;;;111326;1238;50243;-75
2023/06/06 06:41:11;;;;;;;;;13.50;11.00;27.30;48.20;;;;;;111533;1238;49034;-76
2023/06/06 06:43:38;;;;;;;;;11.00;10.00;27.40;48.20;;;;;;111366;1238;53593;-74
2023/06/06 06:46:05;;;;;;;;;14.00;11.00;27.40;48.20;;;;;;111671;1239;44886;-76
2023/06/06 06:48:32;;;;;;;;;11.33;10.33;27.30;48.10;;;;;;111343;1239;49848;-75
2023/06/06 06:50:59;;;;;;;;;13.00;12.00;27.40;48.10;;;;;;111434;1240;49313;-75
2023/06/06 06:53:30;;;;;;;;;11.50;10.50;27.40;48.10;;;;;;111264;1243;54534;-75
2023/06/06 06:55:57;;;;;;;;;13.00;12.00;27.40;48.10;;;;;;111621;1240;44627;-75
2023/06/06 06:58:33;;;;;;;;;14.25;12.00;27.40;48.10;;;;;;111292;1239;49779;-75
2023/06/06 07:01:02;;;;;;;;;15.50;12.75;27.50;48.10;;;;;;111320;1244;49807;-75
2023/06/06 07:03:29;;;;;;;;;11.75;10.50;27.50;48.10;;;;;;111375;1240;54322;-74
2023/06/06 07:05:57;;;;;;;;;13.00;12.00;27.50;48.10;;;;;;111628;1238;45491;-74
2023/06/06 07:08:24;;;;;;;;;12.00;11.00;27.50;48.10;;;;;;111364;1243;49248;-74
2023/06/06 07:10:51;;;;;;;;;15.00;13.67;27.60;48.10;;;;;;111288;1243;49310;-75
2023/06/06 07:13:19;;;;;;;;;13.00;11.00;27.60;48.00;;;;;;111282;1239;54337;-74
2023/06/06 07:15:45;;;;;;;;;13.25;11.00;27.60;48.00;;;;;;111795;1238;44313;-74
2023/06/06 07:18:12;;;;;;;;;16.00;12.25;27.60;48.30;;;;;;111365;1238;50248;-74
2023/06/06 07:20:39;;;;;;;;;12.00;11.00;27.60;48.00;;;;;;111357;1240;49577;-74
2023/06/06 07:23:06;;;;;;;;;11.75;10.75;27.70;48.10;;;;;;111410;1242;53940;-75
2023/06/06 07:25:34;;;;;;;;;12.00;11.00;27.70;48.20;;;;;;111700;1238;44797;-70
2023/06/06 07:28:00;;;;;;;;;14.50;13.50;27.70;47.50;;;;;;111231;1243;49570;-73
2023/06/06 07:30:28;;;;;;;;;14.25;12.00;27.70;46.50;;;;;;111327;1240;49421;-71
2023/06/06 07:32:54;;;;;;;;;17.75;15.50;27.70;46.40;;;;;;111546;1243;53999;-65
2023/06/06 07:35:21;;;;;;;;;18.50;14.75;27.60;46.10;;;;;;111560;1238;44553;-65
2023/06/06 07:37:48;;;;;;;;;14.75;13.50;27.60;46.00;;;;;;111665;1238;49840;-69
2023/06/06 07:40:16;;;;;;;;;14.00;13.00;27.60;45.30;;;;;;111490;1238;49939;-73
2023/06/06 07:42:43;;;;;;;;;16.25;14.00;27.60;45.30;;;;;;111340;1243;53939;-71
2023/06/06 07:45:11;;;;;;;;;16.50;15.50;27.60;45.60;;;;;;111861;1241;44530;-70
2023/06/06 07:47:39;;;;;;;;;13.00;12.00;27.60;45.60;;;;;;111391;1242;48943;-70
2023/06/06 07:50:07;;;;;;;;;14.50;13.00;27.60;45.70;;;;;;111420;1240;49577;-78
2023/06/06 07:52:34;;;;;;;;;13.00;12.00;27.60;45.30;;;;;;111414;1240;53307;-77
2023/06/06 07:55:03;;;;;;;;;15.50;13.00;27.60;45.10;;;;;;111707;1238;44389;-71
2023/06/06 07:57:30;;;;;;;;;15.00;14.00;27.50;44.70;;;;;;111371;1238;50581;-69
2023/06/06 07:59:58;;;;;;;;;14.25;13.00;27.50;44.90;;;;;;111370;1239;49332;-73
2023/06/06 08:02:26;;;;;;;;;12.00;11.00;27.50;45.70;;;;;;111519;1238;53373;-70
2023/06/06 08:04:53;;;;;;;;;13.75;12.75;27.50;45.30;;;;;;111852;1241;43962;-68
2023/06/06 08:07:20;;;;;;;;;14.50;13.75;27.40;45.80;;;;;;111316;1238;49144;-67
2023/06/06 08:09:47;;;;;;;;;14.25;13.25;27.40;45.70;;;;;;111478;1242;49245;-68
2023/06/06 08:12:14;;;;;;;;;16.00;15.00;27.40;45.60;;;;;;111250;1238;53422;-74
2023/06/06 08:14:42;;;;;;;;;14.00;13.00;27.40;45.60;;;;;;111258;1240;45940;-73
2023/06/06 08:17:09;;;;;;;;;16.00;13.00;27.30;45.80;;;;;;111301;1241;49136;-70
2023/06/06 08:19:36;;;;;;;;;17.75;13.75;27.30;45.80;;;;;;111400;1240;49143;-68
2023/06/06 08:22:03;;;;;;;;;12.50;11.00;27.30;46.40;;;;;;111200;1243;54111;-68
2023/06/06 08:24:30;;;;;;;;;14.75;14.00;27.20;46.30;;;;;;111442;1239;45180;-68
2023/06/06 08:26:57;;;;;;;;;17.75;13.00;27.20;46.40;;;;;;111458;1243;49640;-68
2023/06/06 08:29:25;;;;;;;;;15.75;13.25;27.20;46.20;;;;;;111426;1243;49518;-69
2023/06/06 08:31:53;;;;;;;;;15.00;14.00;27.20;46.20;;;;;;111431;1238;54257;-72
2023/06/06 08:34:21;;;;;;;;;14.75;13.75;27.20;46.30;;;;;;111546;1241;44940;-71
2023/06/06 08:36:49;;;;;;;;;13.67;12.33;27.30;46.10;;;;;;111480;1241;48983;-71
2023/06/06 08:39:18;;;;;;;;;15.00;14.00;27.30;45.90;;;;;;111722;1238;49239;-73
2023/06/06 08:41:50;;;;;;;;;15.75;13.00;27.30;46.10;;;;;;111539;1241;53605;-68
2023/06/06 08:44:22;;;;;;;;;15.00;13.50;27.30;45.70;;;;;;111443;1247;45024;-69
2023/06/06 08:46:51;;;;;;;;;18.00;15.75;27.30;45.90;;;;;;111370;1238;49354;-69
2023/06/06 08:49:19;;;;;;;;;15.75;12.75;27.40;46.40;;;;;;111294;1243;49740;-69
2023/06/06 08:51:51;;;;;;;;;15.00;12.75;27.40;45.80;;;;;;111454;1241;53821;-68
2023/06/06 08:54:19;;;;;;;;;15.50;14.25;27.40;45.50;;;;;;111476;1238;44397;-67
2023/06/06 08:56:47;;;;;;;;;14.50;12.00;27.30;45.40;;;;;;111417;1238;49644;-69
2023/06/06 08:59:15;;;;;;;;;14.67;12.00;27.30;45.40;;;;;;111512;1238;48955;-70
2023/06/06 09:01:43;;;;;;;;;11.00;10.00;27.30;44.50;;;;;;111412;1241;54779;-69
2023/06/06 09:04:13;;;;;;;;;15.75;11.25;27.30;44.10;;;;;;111297;1238;44771;-68
2023/06/06 09:06:43;;;;;;;;;13.00;12.00;27.30;44.30;;;;;;111234;1243;49189;-68
2023/06/06 09:09:12;;;;;;;;;12.00;11.00;27.30;44.20;;;;;;111356;1238;49154;-67
2023/06/06 09:11:40;;;;;;;;;13.00;12.00;27.30;44.10;;;;;;111439;1243;54330;-67
2023/06/06 09:14:07;;;;;;;;;11.75;11.00;27.30;43.90;;;;;;111336;1243;44448;-66
2023/06/06 09:16:34;;;;;;;;;13.25;12.25;27.30;43.90;;;;;;111223;1243;49109;-65
2023/06/06 09:19:02;;;;;;;;;17.00;13.00;27.40;43.90;;;;;;111250;1238;49871;-63
2023/06/06 09:21:32;;;;;;;;;12.00;11.00;27.40;44.50;;;;;;111268;1238;53141;-65
2023/06/06 09:24:00;;;;;;;;;12.00;11.00;27.30;44.10;;;;;;111575;1241;44446;-68
2023/06/06 09:26:28;;;;;;;;;14.00;13.00;27.30;44.10;;;;;;111240;1239;49798;-67
2023/06/06 09:28:57;;;;;;;;;12.25;11.25;27.30;45.00;;;;;;111231;1238;50064;-67
2023/06/06 09:31:48;;;;;;;;;14.50;12.25;27.30;44.50;;;;;;111249;1241;53388;-65
2023/06/06 09:34:15;;;;;;;;;14.00;13.00;27.30;44.60;;;;;;111317;1241;44975;-66
2023/06/06 09:36:44;;;;;;;;;14.50;13.25;27.40;44.20;;;;;;111647;1240;49418;-67
2023/06/06 09:39:13;;;;;;;;;14.00;13.00;27.40;44.30;;;;;;111583;1238;49519;-67
2023/06/06 09:41:45;;;;;;;;;13.50;12.25;27.40;43.80;;;;;;111446;1238;53942;-62
2023/06/06 09:44:19;;;;;;;;;13.67;12.67;27.40;44.10;;;;;;111331;1238;44203;-63
2023/06/06 09:46:50;;;;;;;;;13.75;11.75;27.40;43.40;;;;;;111233;1243;49186;-65
2023/06/06 09:49:17;;;;;;;;;12.25;11.00;27.40;43.20;;;;;;111258;1238;49816;-65
2023/06/06 09:51:45;;;;;;;;;12.50;11.25;27.40;43.40;;;;;;111502;1238;54274;-64
2023/06/06 09:54:12;;;;;;;;;14.00;13.00;27.40;43.30;;;;;;111746;1243;44620;-65
2023/06/06 09:56:42;;;;;;;;;12.00;11.00;27.40;43.30;;;;;;111285;1238;48676;-63
2023/06/06 09:59:11;;;;;;;;;13.50;12.50;27.40;43.20;;;;;;111417;1239;48960;-65
2023/06/06 10:01:38;;;;;;;;;11.00;10.00;27.40;42.90;;;;;;111504;1243;54692;-66
2023/06/06 10:04:07;;;;;;;;;15.75;13.75;27.40;43.10;;;;;;111433;1239;45086;-67
2023/06/06 10:06:34;;;;;;;;;14.75;12.75;27.40;43.00;;;;;;111541;1241;49267;-73
2023/06/06 10:09:04;;;;;;;;;46.75;35.00;27.40;42.70;;;;;;111462;1243;48952;-72
2023/06/06 10:11:35;;;;;;;;;56.50;42.00;27.40;44.10;;;;;;111458;1242;54138;-70
2023/06/06 10:14:03;;;;;;;;;43.67;34.00;27.50;44.40;;;;;;111456;1241;44502;-72
2023/06/06 10:16:31;;;;;;;;;38.00;29.00;27.40;44.00;;;;;;111451;1239;49804;-66
2023/06/06 10:18:59;;;;;;;;;26.25;20.00;27.50;43.90;;;;;;111334;1240;49592;-65
2023/06/06 10:21:30;;;;;;;;;16.25;15.00;27.50;43.60;;;;;;111344;1243;54363;-66
2023/06/06 10:23:57;;;;;;;;;21.67;18.00;27.40;43.40;;;;;;111280;1238;44136;-69
2023/06/06 10:26:35;;;;;;;;;19.50;15.75;27.40;43.30;;;;;;111294;1243;50024;-72
2023/06/06 10:29:17;;;;;;;;;23.25;20.00;27.40;43.60;;;;;;111312;1239;50714;-70
2023/06/06 10:31:53;;;;;;;;;25.50;21.50;27.40;44.00;;;;;;111233;1239;53404;-66
2023/06/06 10:34:27;;;;;;;;;27.00;22.00;27.40;44.40;;;;;;111293;1243;45018;-68
2023/06/06 10:36:57;;;;;;;;;23.67;19.00;27.40;44.60;;;;;;111111;1244;49400;-68
2023/06/06 10:39:25;;;;;;;;;18.50;15.50;27.50;44.70;;;;;;111364;1240;50010;-68
2023/06/06 10:41:52;;;;;;;;;15.75;13.00;27.50;44.70;;;;;;111652;1238;53800;-68
2023/06/06 10:44:36;;;;;;;;;16.00;15.00;27.50;45.20;;;;;;111292;1239;44811;-69
2023/06/06 10:47:23;;;;;;;;;15.00;13.50;27.50;44.90;;;;;;111083;1241;49001;-68
2023/06/06 10:50:02;;;;;;;;;13.75;12.75;27.60;44.80;;;;;;111163;1238;49023;-68
2023/06/06 10:52:29;;;;;;;;;21.00;14.75;27.50;45.30;;;;;;111400;1241;53984;-69
2023/06/06 10:54:59;;;;;;;;;15.00;14.00;27.50;45.80;;;;;;111469;1241;44030;-68
2023/06/06 10:57:26;;;;;;;;;15.00;14.00;27.50;46.20;;;;;;111298;1241;49801;-69
2023/06/06 10:59:55;;;;;;;;;19.33;14.00;27.50;46.00;;;;;;111306;1243;49812;-69
2023/06/06 11:02:34;;;;;;;;;19.75;17.00;27.50;46.10;;;;;;111360;1238;53528;-68
2023/06/06 11:05:01;;;;;;;;;18.50;14.75;27.50;46.20;;;;;;111390;1237;45113;-68
2023/06/06 11:07:28;;;;;;;;;19.25;15.00;27.50;46.30;;;;;;111280;1240;48953;-67
2023/06/06 11:09:55;;;;;;;;;15.00;14.00;27.50;46.30;;;;;;111547;1241;49820;-68
2023/06/06 11:12:23;;;;;;;;;13.50;12.50;27.50;46.40;;;;;;111391;1237;53427;-68
2023/06/06 11:14:57;;;;;;;;;17.00;13.75;27.50;46.80;;;;;;111329;1239;44344;-69
2023/06/06 11:17:27;;;;;;;;;17.00;13.50;27.50;46.50;;;;;;111259;1242;49267;-69
2023/06/06 11:19:55;;;;;;;;;16.50;15.25;27.50;46.60;;;;;;111339;1240;49513;-68
2023/06/06 11:22:24;;;;;;;;;15.00;14.00;27.50;46.10;;;;;;111538;1242;53401;-68
2023/06/06 11:24:55;;;;;;;;;13.00;12.00;27.50;45.80;;;;;;111382;1241;44146;-66
2023/06/06 11:27:22;;;;;;;;;14.25;13.25;27.50;45.60;;;;;;111539;1241;49160;-69
2023/06/06 11:29:52;;;;;;;;;13.67;12.67;27.50;45.20;;;;;;111458;1237;49512;-68
2023/06/06 11:32:20;;;;;;;;;15.00;14.00;27.50;45.90;;;;;;111288;1238;53370;-69
2023/06/06 11:34:46;;;;;;;;;16.00;12.75;27.50;45.80;;;;;;111368;1240;45094;-68
2023/06/06 11:37:14;;;;;;;;;15.25;14.25;27.50;45.90;;;;;;111511;1238;50402;-67
2023/06/06 11:39:41;;;;;;;;;13.25;12.00;27.50;45.90;;;;;;111474;1241;49916;-68
2023/06/06 11:42:16;;;;;;;;;12.75;11.50;27.50;45.90;;;;;;111436;1239;53447;-69
2023/06/06 11:44:43;;;;;;;;;14.75;13.25;27.50;46.00;;;;;;111403;1240;44370;-69
2023/06/06 11:47:10;;;;;;;;;16.00;13.00;27.50;45.90;;;;;;111254;1244;50218;-68
2023/06/06 11:49:42;;;;;;;;;13.00;12.00;27.50;45.90;;;;;;111483;1239;49484;-68
2023/06/06 11:52:10;;;;;;;;;15.75;13.00;27.50;46.00;;;;;;111476;1238;54155;-69
2023/06/06 11:54:38;;;;;;;;;12.25;11.25;27.50;46.40;;;;;;111283;1243;45139;-69
2023/06/06 11:57:08;;;;;;;;;15.25;11.00;27.50;46.30;;;;;;111533;1238;48801;-68
2023/06/06 11:59:35;;;;;;;;;12.75;11.75;27.50;46.40;;;;;;111389;1238;49941;-68
2023/06/06 12:02:02;;;;;;;;;13.00;11.25;27.50;46.30;;;;;;111359;1241;54575;-68
2023/06/06 12:04:29;;;;;;;;;12.33;11.33;27.50;46.30;;;;;;111322;1241;44648;-68
2023/06/06 12:07:05;;;;;;;;;14.00;13.00;27.50;46.30;;;;;;111309;1240;49615;-68
2023/06/06 12:09:32;;;;;;;;;16.67;13.00;27.50;46.20;;;;;;111511;1242;50132;-68
2023/06/06 12:12:01;;;;;;;;;18.25;13.75;27.50;46.20;;;;;;111299;1244;53830;-68
2023/06/06 12:14:29;;;;;;;;;13.50;12.50;27.50;46.20;;;;;;111303;1241;45060;-69
2023/06/06 12:17:04;;;;;;;;;15.67;12.67;27.60;46.60;;;;;;111245;1244;49825;-68
2023/06/06 12:19:31;;;;;;;;;14.75;13.75;27.60;46.40;;;;;;111280;1238;49287;-67
2023/06/06 12:21:59;;;;;;;;;16.75;14.75;27.60;46.50;;;;;;111220;1244;53768;-69
2023/06/06 12:24:30;;;;;;;;;14.00;13.00;27.60;46.60;;;;;;111281;1244;44183;-67